Time;durP1;ratioP1;P1;durP2;ratioP2;P2;SDS_P1;SDS_P2;PMS_P1;PMS_P2;Temp;Humidity;BMP_temperature;BMP_pressure;BME280_temperature;BME280_humidity;BME280_pressure;Samples;Min_cycle;Max_cycle;Signal;HPM_P1;HPM_P2
2023/08/21 00:01:22;;;;;;;5.90;2.97;;;;;;;;;;5007337;28;20216;-58
2023/08/21 00:03:48;;;;;;;5.67;3.03;;;;;;;;;;5004134;28;20202;-58
2023/08/21 00:06:14;;;;;;;4.20;2.90;;;;;;;;;;4987715;28;20183;-58
2023/08/21 00:08:40;;;;;;;3.10;2.80;;;;;;;;;;4983041;28;20179;-57
2023/08/21 00:11:06;;;;;;;3.40;2.87;;;;;;;;;;5007367;28;20175;-59
2023/08/21 00:13:32;;;;;;;7.40;2.80;;;;;;;;;;5006320;28;20194;-58
2023/08/21 00:15:58;;;;;;;4.97;2.83;;;;;;;;;;5006488;28;20195;-56
2023/08/21 00:18:24;;;;;;;2.87;2.63;;;;;;;;;;5007460;28;20230;-56
2023/08/21 00:20:50;;;;;;;5.17;2.30;;;;;;;;;;5008995;28;20186;-56
2023/08/21 00:23:16;;;;;;;4.23;3.20;;;;;;;;;;5007114;28;20638;-56
2023/08/21 00:25:46;;;;;;;4.80;2.83;;;;;;;;;;4989471;28;20176;-56
2023/08/21 00:28:12;;;;;;;3.60;2.83;;;;;;;;;;5007723;28;20180;-59
2023/08/21 00:30:38;;;;;;;2.93;2.53;;;;;;;;;;5003542;28;20195;-56
2023/08/21 00:33:04;;;;;;;5.90;2.83;;;;;;;;;;5006987;28;20188;-56
2023/08/21 00:35:30;;;;;;;5.50;3.20;;;;;;;;;;5007583;28;20576;-56
2023/08/21 00:37:56;;;;;;;5.53;2.83;;;;;;;;;;5006940;28;20188;-57
2023/08/21 00:40:22;;;;;;;3.47;2.50;;;;;;;;;;5007727;28;20199;-56
2023/08/21 00:42:48;;;;;;;4.60;2.53;;;;;;;;;;5004640;28;20782;-56
2023/08/21 00:45:15;;;;;;;4.43;2.97;;;;;;;;;;5008201;28;20189;-57
2023/08/21 00:47:41;;;;;;;4.90;2.70;;;;;;;;;;5007531;28;21011;-56
2023/08/21 00:50:08;;;;;;;3.77;2.97;;;;;;;;;;5001865;28;20230;-56
2023/08/21 00:52:37;;;;;;;4.90;2.97;;;;;;;;;;5006954;28;20297;-56
2023/08/21 00:55:03;;;;;;;2.93;2.63;;;;;;;;;;5005295;28;20209;-56
2023/08/21 00:57:30;;;;;;;7.57;2.90;;;;;;;;;;5006288;28;20587;-56
2023/08/21 00:59:56;;;;;;;5.07;2.80;;;;;;;;;;5007170;28;20191;-56
2023/08/21 01:02:22;;;;;;;5.30;2.60;;;;;;;;;;5005245;28;20210;-55
2023/08/21 01:04:48;;;;;;;7.73;2.50;;;;;;;;;;5005415;28;20210;-56
2023/08/21 01:07:15;;;;;;;4.47;2.70;;;;;;;;;;5002610;28;20202;-56
2023/08/21 01:09:46;;;;;;;4.03;2.90;;;;;;;;;;5007203;28;20534;-56
2023/08/21 01:12:23;;;;;;;4.87;2.70;;;;;;;;;;5006317;28;20210;-56
2023/08/21 01:14:52;;;;;;;3.70;2.43;;;;;;;;;;5005924;28;20274;-57
2023/08/21 01:17:19;;;;;;;4.30;3.10;;;;;;;;;;5007440;28;20256;-57
2023/08/21 01:19:48;;;;;;;3.87;2.77;;;;;;;;;;5005066;28;20184;-56
2023/08/21 01:22:15;;;;;;;3.87;2.37;;;;;;;;;;5004430;28;20182;-56
2023/08/21 01:24:41;;;;;;;5.20;2.70;;;;;;;;;;5006228;28;20605;-57
2023/08/21 01:27:07;;;;;;;4.43;2.97;;;;;;;;;;5004599;28;20594;-58
2023/08/21 01:29:34;;;;;;;2.80;2.50;;;;;;;;;;5006882;28;20168;-59
2023/08/21 01:32:24;;;;;;;8.70;3.30;;;;;;;;;;5006739;28;20189;-57
2023/08/21 01:34:51;;;;;;;3.10;2.17;;;;;;;;;;5000493;28;20740;-59
2023/08/21 01:37:18;;;;;;;8.67;2.50;;;;;;;;;;5004344;28;20617;-58
2023/08/21 01:39:44;;;;;;;5.13;2.50;;;;;;;;;;5002442;28;20283;-58
2023/08/21 01:42:11;;;;;;;4.30;2.70;;;;;;;;;;5005677;28;20590;-59
2023/08/21 01:44:37;;;;;;;5.60;3.00;;;;;;;;;;5006560;28;20273;-57
2023/08/21 01:47:03;;;;;;;4.53;3.10;;;;;;;;;;5004120;28;20313;-57
2023/08/21 01:49:29;;;;;;;5.03;2.30;;;;;;;;;;5004921;28;20206;-59
2023/08/21 01:51:55;;;;;;;7.23;2.67;;;;;;;;;;5002295;28;20191;-58
2023/08/21 01:54:21;;;;;;;4.13;2.70;;;;;;;;;;5004886;28;20187;-58
2023/08/21 01:56:47;;;;;;;3.47;2.70;;;;;;;;;;5004544;28;20191;-58
2023/08/21 01:59:13;;;;;;;4.70;2.70;;;;;;;;;;5005088;28;20237;-58
2023/08/21 02:01:39;;;;;;;4.73;2.60;;;;;;;;;;5007285;28;20720;-59
2023/08/21 02:04:05;;;;;;;8.07;2.73;;;;;;;;;;5006393;28;20258;-59
2023/08/21 02:06:31;;;;;;;6.33;2.87;;;;;;;;;;5007077;28;20213;-58
2023/08/21 02:08:57;;;;;;;3.00;2.60;;;;;;;;;;5009126;28;20649;-59
2023/08/21 02:11:23;;;;;;;4.03;2.67;;;;;;;;;;5010260;28;20182;-59
2023/08/21 02:13:50;;;;;;;5.93;2.80;;;;;;;;;;5007476;28;20241;-58
2023/08/21 02:16:16;;;;;;;4.77;2.60;;;;;;;;;;5009864;28;20295;-58
2023/08/21 02:18:42;;;;;;;3.73;2.60;;;;;;;;;;5009610;28;20233;-58
2023/08/21 02:21:08;;;;;;;4.03;2.60;;;;;;;;;;5009500;28;20654;-59
2023/08/21 02:23:34;;;;;;;9.03;2.90;;;;;;;;;;5007612;28;20202;-58
2023/08/21 02:26:02;;;;;;;3.07;2.40;;;;;;;;;;5009091;28;20217;-58
2023/08/21 02:28:28;;;;;;;5.60;2.70;;;;;;;;;;5009068;28;20182;-58
2023/08/21 02:30:54;;;;;;;4.70;2.60;;;;;;;;;;5007498;28;20217;-58
2023/08/21 02:33:20;;;;;;;6.67;3.47;;;;;;;;;;5006819;28;20187;-58
2023/08/21 02:35:46;;;;;;;4.07;2.77;;;;;;;;;;5000245;28;20187;-58
2023/08/21 02:38:13;;;;;;;2.70;2.43;;;;;;;;;;5006569;28;20179;-52
2023/08/21 02:40:39;;;;;;;5.43;2.30;;;;;;;;;;5009275;28;20187;-53
2023/08/21 02:43:05;;;;;;;4.20;2.60;;;;;;;;;;5002870;28;20237;-53
2023/08/21 02:45:31;;;;;;;5.13;2.63;;;;;;;;;;5010531;28;20672;-54
2023/08/21 02:47:57;;;;;;;3.67;2.37;;;;;;;;;;5009372;28;20190;-53
2023/08/21 02:50:23;;;;;;;4.33;2.80;;;;;;;;;;5010708;28;20222;-53
2023/08/21 02:52:49;;;;;;;6.80;2.40;;;;;;;;;;5006692;28;20193;-53
2023/08/21 02:55:15;;;;;;;6.40;3.20;;;;;;;;;;5009688;28;20689;-53
2023/08/21 02:57:41;;;;;;;5.00;2.90;;;;;;;;;;5008751;28;20214;-53
2023/08/21 03:00:08;;;;;;;6.27;2.87;;;;;;;;;;5008139;28;20181;-54
2023/08/21 03:02:34;;;;;;;3.07;2.40;;;;;;;;;;5009462;28;20210;-53
2023/08/21 03:05:01;;;;;;;5.10;2.37;;;;;;;;;;5006370;28;20227;-53
2023/08/21 03:07:27;;;;;;;7.50;2.67;;;;;;;;;;5003560;28;20187;-56
2023/08/21 03:09:53;;;;;;;3.60;2.43;;;;;;;;;;5009374;28;20240;-52
2023/08/21 03:12:19;;;;;;;4.07;2.40;;;;;;;;;;5009649;28;20189;-53
2023/08/21 03:14:46;;;;;;;4.17;3.07;;;;;;;;;;5009708;28;20181;-53
2023/08/21 03:17:12;;;;;;;5.43;2.93;;;;;;;;;;5009830;28;20183;-53
2023/08/21 03:19:38;;;;;;;4.33;2.50;;;;;;;;;;5007320;28;20592;-54
2023/08/21 03:22:04;;;;;;;6.40;2.40;;;;;;;;;;4988384;28;20228;-54
2023/08/21 03:24:30;;;;;;;5.10;2.57;;;;;;;;;;5007353;28;20570;-53
2023/08/21 03:26:56;;;;;;;3.87;2.60;;;;;;;;;;5009088;28;20175;-54
2023/08/21 03:29:23;;;;;;;4.30;2.03;;;;;;;;;;5007188;28;20186;-53
2023/08/21 03:31:53;;;;;;;6.23;4.53;;;;;;;;;;5009559;28;20261;-54
2023/08/21 03:34:19;;;;;;;7.80;3.10;;;;;;;;;;5007096;28;20244;-54
2023/08/21 03:36:45;;;;;;;5.43;2.63;;;;;;;;;;5006630;28;20309;-57
2023/08/21 03:39:11;;;;;;;5.67;2.57;;;;;;;;;;5007121;28;20175;-53
2023/08/21 03:41:37;;;;;;;2.93;2.17;;;;;;;;;;5006305;28;20652;-53
2023/08/21 03:44:04;;;;;;;6.63;2.60;;;;;;;;;;5006008;28;20206;-54
2023/08/21 03:46:30;;;;;;;5.33;2.20;;;;;;;;;;5007534;28;20272;-53
2023/08/21 03:48:56;;;;;;;2.77;2.20;;;;;;;;;;5007420;28;20186;-58
2023/08/21 03:51:22;;;;;;;2.20;2.00;;;;;;;;;;5007713;28;20693;-57
2023/08/21 03:53:48;;;;;;;3.53;2.70;;;;;;;;;;5003648;28;20708;-57
2023/08/21 03:56:14;;;;;;;4.70;2.57;;;;;;;;;;5009132;28;20205;-57
2023/08/21 03:58:40;;;;;;;13.10;3.27;;;;;;;;;;5000450;28;20640;-58
2023/08/21 04:01:06;;;;;;;3.93;2.67;;;;;;;;;;5004603;28;20210;-58
2023/08/21 04:03:33;;;;;;;4.60;2.50;;;;;;;;;;5004493;28;20191;-58
2023/08/21 04:05:59;;;;;;;3.33;2.20;;;;;;;;;;5002645;28;20241;-58
2023/08/21 04:08:25;;;;;;;4.63;2.33;;;;;;;;;;4977333;28;20189;-58
2023/08/21 04:10:59;;;;;;;3.03;2.17;;;;;;;;;;5005800;28;20183;-57
2023/08/21 04:13:25;;;;;;;2.67;2.43;;;;;;;;;;5002990;28;20183;-58
2023/08/21 04:15:51;;;;;;;5.10;2.37;;;;;;;;;;5009664;28;20197;-58
2023/08/21 04:18:17;;;;;;;6.30;2.63;;;;;;;;;;5005601;28;20679;-58
2023/08/21 04:20:43;;;;;;;3.77;2.17;;;;;;;;;;5008806;28;20207;-58
2023/08/21 04:23:09;;;;;;;2.50;2.30;;;;;;;;;;5004917;28;20195;-58
2023/08/21 04:25:36;;;;;;;4.17;2.30;;;;;;;;;;5001729;28;20194;-58
2023/08/21 04:28:02;;;;;;;5.50;2.57;;;;;;;;;;5004970;28;20177;-58
2023/08/21 04:30:28;;;;;;;5.03;2.73;;;;;;;;;;4996448;28;20177;-57
2023/08/21 04:32:54;;;;;;;3.67;2.40;;;;;;;;;;5006992;28;20189;-58
2023/08/21 04:35:20;;;;;;;3.97;2.60;;;;;;;;;;5007509;28;20203;-59
2023/08/21 04:37:49;;;;;;;5.23;2.30;;;;;;;;;;5007331;28;20188;-59
2023/08/21 04:40:17;;;;;;;3.37;1.97;;;;;;;;;;5004909;28;20685;-58
2023/08/21 04:42:43;;;;;;;5.60;2.50;;;;;;;;;;5008340;28;20561;-58
2023/08/21 04:45:10;;;;;;;4.27;2.97;;;;;;;;;;4992847;28;20243;-58
2023/08/21 04:47:36;;;;;;;4.53;2.60;;;;;;;;;;5001777;28;20327;-58
2023/08/21 04:50:02;;;;;;;2.53;1.93;;;;;;;;;;5007315;28;20239;-58
2023/08/21 04:52:28;;;;;;;5.17;2.87;;;;;;;;;;4998966;28;20174;-58
2023/08/21 04:54:55;;;;;;;5.43;2.43;;;;;;;;;;5002467;28;20221;-61
2023/08/21 04:57:21;;;;;;;6.63;2.63;;;;;;;;;;5001641;28;20194;-56
2023/08/21 04:59:48;;;;;;;3.97;2.67;;;;;;;;;;5004789;28;20643;-56
2023/08/21 05:02:14;;;;;;;3.43;2.83;;;;;;;;;;5001838;28;20204;-58
2023/08/21 05:04:40;;;;;;;2.73;2.17;;;;;;;;;;5003113;28;20286;-58
2023/08/21 05:07:06;;;;;;;5.87;3.53;;;;;;;;;;5006628;28;20208;-57
2023/08/21 05:09:33;;;;;;;4.00;2.20;;;;;;;;;;5006661;28;20258;-54
2023/08/21 05:11:59;;;;;;;5.93;2.80;;;;;;;;;;5006107;28;20189;-52
2023/08/21 05:14:25;;;;;;;5.43;3.07;;;;;;;;;;5007729;28;20565;-53
2023/08/21 05:16:51;;;;;;;3.03;2.03;;;;;;;;;;5005888;28;20676;-53
2023/08/21 05:19:17;;;;;;;6.07;2.57;;;;;;;;;;5003521;28;20181;-52
2023/08/21 05:21:44;;;;;;;4.90;2.90;;;;;;;;;;5002907;28;20224;-52
2023/08/21 05:24:10;;;;;;;3.73;2.40;;;;;;;;;;4999749;28;20665;-53
2023/08/21 05:26:37;;;;;;;3.63;2.30;;;;;;;;;;5000581;28;20195;-54
2023/08/21 05:29:03;;;;;;;3.00;1.97;;;;;;;;;;5005828;28;20178;-55
2023/08/21 05:31:29;;;;;;;2.33;2.10;;;;;;;;;;5003397;28;20588;-54
2023/08/21 05:33:55;;;;;;;2.93;2.07;;;;;;;;;;5005545;28;20179;-54
2023/08/21 05:36:21;;;;;;;7.70;2.40;;;;;;;;;;5007121;28;20644;-53
2023/08/21 05:38:48;;;;;;;4.13;2.63;;;;;;;;;;5004172;28;20194;-53
2023/08/21 05:41:15;;;;;;;2.20;2.00;;;;;;;;;;5007647;28;20658;-54
2023/08/21 05:43:42;;;;;;;2.37;2.17;;;;;;;;;;5010980;28;20201;-54
2023/08/21 05:46:08;;;;;;;2.37;2.17;;;;;;;;;;5008313;28;20190;-54
2023/08/21 05:48:34;;;;;;;5.33;2.30;;;;;;;;;;5007965;28;20231;-54
2023/08/21 05:51:01;;;;;;;3.27;2.40;;;;;;;;;;5008471;28;20224;-54
2023/08/21 05:53:27;;;;;;;5.00;2.40;;;;;;;;;;5001730;28;20288;-55
2023/08/21 05:55:53;;;;;;;3.30;2.00;;;;;;;;;;4997923;28;20622;-54
2023/08/21 05:58:19;;;;;;;4.47;2.07;;;;;;;;;;5010660;28;20270;-55
2023/08/21 06:00:47;;;;;;;3.80;2.20;;;;;;;;;;5006826;28;20189;-54
2023/08/21 06:03:13;;;;;;;2.00;1.90;;;;;;;;;;5008328;28;20209;-54
2023/08/21 06:05:39;;;;;;;5.40;2.20;;;;;;;;;;5009495;28;20181;-56
2023/08/21 06:08:05;;;;;;;7.43;3.73;;;;;;;;;;5008293;28;20179;-54
2023/08/21 06:10:32;;;;;;;3.00;1.90;;;;;;;;;;5004651;28;20189;-54
2023/08/21 06:12:58;;;;;;;5.17;2.40;;;;;;;;;;5005504;28;20690;-55
2023/08/21 06:15:24;;;;;;;5.03;2.33;;;;;;;;;;5004150;28;20211;-55
2023/08/21 06:17:50;;;;;;;5.10;2.00;;;;;;;;;;5003551;28;20225;-55
2023/08/21 06:20:16;;;;;;;3.37;2.07;;;;;;;;;;5006598;28;20283;-55
2023/08/21 06:22:42;;;;;;;3.83;1.90;;;;;;;;;;5001845;28;20183;-56
2023/08/21 06:25:09;;;;;;;2.87;1.97;;;;;;;;;;5002846;28;20190;-55
2023/08/21 06:27:35;;;;;;;4.43;1.97;;;;;;;;;;5005138;28;20639;-56
2023/08/21 06:30:01;;;;;;;7.03;2.37;;;;;;;;;;5011351;28;20182;-55
2023/08/21 06:32:27;;;;;;;5.13;2.90;;;;;;;;;;5012023;28;20642;-55
2023/08/21 06:34:53;;;;;;;5.00;2.57;;;;;;;;;;5002514;28;20597;-54
2023/08/21 06:37:20;;;;;;;2.70;2.30;;;;;;;;;;4996015;28;20175;-54
2023/08/21 06:39:46;;;;;;;3.97;2.40;;;;;;;;;;5009517;28;20669;-54
2023/08/21 06:42:12;;;;;;;2.43;2.03;;;;;;;;;;5009531;28;20175;-54
2023/08/21 06:44:38;;;;;;;2.90;1.90;;;;;;;;;;5008762;28;20203;-54
2023/08/21 06:47:05;;;;;;;2.03;1.90;;;;;;;;;;5011743;28;20182;-53
2023/08/21 06:49:34;;;;;;;2.67;2.30;;;;;;;;;;5008311;28;20492;-54
2023/08/21 06:52:00;;;;;;;3.27;2.13;;;;;;;;;;5010759;28;20183;-54
2023/08/21 06:54:27;;;;;;;2.80;2.33;;;;;;;;;;5006655;28;20182;-56
2023/08/21 06:56:53;;;;;;;4.63;2.37;;;;;;;;;;5009324;28;20197;-55
2023/08/21 06:59:20;;;;;;;5.13;2.70;;;;;;;;;;4997679;28;20715;-55
2023/08/21 07:01:46;;;;;;;3.17;2.10;;;;;;;;;;4995535;28;20210;-54
2023/08/21 07:04:13;;;;;;;3.63;2.20;;;;;;;;;;5009998;28;20381;-54
2023/08/21 07:06:39;;;;;;;5.67;2.60;;;;;;;;;;5008889;28;20213;-56
2023/08/21 07:09:06;;;;;;;3.67;2.47;;;;;;;;;;5004110;28;20186;-56
2023/08/21 07:11:32;;;;;;;5.53;2.20;;;;;;;;;;4992635;28;20629;-54
2023/08/21 07:13:58;;;;;;;5.33;2.40;;;;;;;;;;5004607;28;20704;-55
2023/08/21 07:16:26;;;;;;;3.77;2.53;;;;;;;;;;5004939;28;20202;-54
2023/08/21 07:18:52;;;;;;;3.27;2.80;;;;;;;;;;5003105;28;20183;-56
2023/08/21 07:21:18;;;;;;;3.30;2.07;;;;;;;;;;5006152;28;20171;-55
2023/08/21 07:23:44;;;;;;;5.40;2.80;;;;;;;;;;4997010;28;20206;-56
2023/08/21 07:26:11;;;;;;;8.37;2.83;;;;;;;;;;5006623;28;20180;-55
2023/08/21 07:28:37;;;;;;;7.50;2.80;;;;;;;;;;5001201;28;20183;-55
2023/08/21 07:31:03;;;;;;;7.43;3.27;;;;;;;;;;5006658;28;20187;-55
2023/08/21 07:33:29;;;;;;;6.90;2.83;;;;;;;;;;5003392;28;20237;-55
2023/08/21 07:35:59;;;;;;;4.13;2.70;;;;;;;;;;5007315;28;20206;-55
2023/08/21 07:38:25;;;;;;;4.70;2.80;;;;;;;;;;5007264;28;20190;-56
2023/08/21 07:40:51;;;;;;;5.60;2.90;;;;;;;;;;5001846;28;20645;-56
2023/08/21 07:43:17;;;;;;;7.63;2.87;;;;;;;;;;5009795;28;20206;-56
2023/08/21 07:45:43;;;;;;;4.00;2.50;;;;;;;;;;5008233;28;20179;-57
2023/08/21 07:48:09;;;;;;;3.70;2.50;;;;;;;;;;5005254;28;20182;-54
2023/08/21 07:50:35;;;;;;;3.50;2.53;;;;;;;;;;5004825;28;20562;-54
2023/08/21 07:53:02;;;;;;;5.13;2.83;;;;;;;;;;5004734;28;20179;-55
2023/08/21 07:55:28;;;;;;;5.97;2.63;;;;;;;;;;4985385;28;20206;-55
2023/08/21 07:57:54;;;;;;;5.47;2.43;;;;;;;;;;5001181;28;20202;-54
2023/08/21 08:00:20;;;;;;;4.23;2.27;;;;;;;;;;5003471;28;20634;-55
2023/08/21 08:02:46;;;;;;;6.20;2.70;;;;;;;;;;5006390;28;20210;-55
2023/08/21 08:05:12;;;;;;;7.57;2.77;;;;;;;;;;5006260;28;20256;-54
2023/08/21 08:07:38;;;;;;;10.00;4.47;;;;;;;;;;5001731;28;20183;-55
2023/08/21 08:10:04;;;;;;;8.63;2.70;;;;;;;;;;5007171;28;20547;-55
2023/08/21 08:12:33;;;;;;;6.43;2.80;;;;;;;;;;5002649;28;20202;-56
2023/08/21 08:14:59;;;;;;;4.27;2.73;;;;;;;;;;5001547;28;20653;-56
2023/08/21 08:17:25;;;;;;;4.07;2.80;;;;;;;;;;5006625;28;20660;-55
2023/08/21 08:19:51;;;;;;;6.03;3.10;;;;;;;;;;5009142;28;20183;-55
2023/08/21 08:22:17;;;;;;;4.17;2.80;;;;;;;;;;5002754;28;20209;-55
2023/08/21 08:24:43;;;;;;;7.37;3.47;;;;;;;;;;5005735;28;20670;-55
2023/08/21 08:27:10;;;;;;;9.60;3.27;;;;;;;;;;4983108;28;21819;-55
2023/08/21 08:29:36;;;;;;;4.17;2.77;;;;;;;;;;5006820;28;20252;-55
2023/08/21 08:32:02;;;;;;;4.20;2.63;;;;;;;;;;5005024;28;20276;-55
2023/08/21 08:34:28;;;;;;;13.53;3.87;;;;;;;;;;5006351;28;20186;-56
2023/08/21 08:36:54;;;;;;;4.10;2.73;;;;;;;;;;5006441;28;20214;-56
2023/08/21 08:39:20;;;;;;;3.63;3.03;;;;;;;;;;5004495;28;20630;-58
2023/08/21 08:42:02;;;;;;;3.33;2.67;;;;;;;;;;4997757;28;20483;-62
2023/08/21 08:44:28;;;;;;;4.13;2.90;;;;;;;;;;4996880;28;20213;-58
2023/08/21 08:46:55;;;;;;;4.90;2.80;;;;;;;;;;5008788;28;20518;-58
2023/08/21 08:49:22;;;;;;;8.23;3.10;;;;;;;;;;5009629;28;20205;-58
2023/08/21 08:51:51;;;;;;;5.47;3.37;;;;;;;;;;5007695;28;20230;-58
2023/08/21 08:54:18;;;;;;;6.37;2.97;;;;;;;;;;5007045;28;20733;-57
2023/08/21 08:56:44;;;;;;;5.03;3.13;;;;;;;;;;5008034;28;20189;-57
2023/08/21 08:59:11;;;;;;;5.20;2.93;;;;;;;;;;4982639;28;20186;-57
2023/08/21 09:01:37;;;;;;;5.53;3.17;;;;;;;;;;5009484;28;20256;-57
2023/08/21 09:04:03;;;;;;;6.63;3.23;;;;;;;;;;5007802;28;20206;-57
2023/08/21 09:06:29;;;;;;;3.50;3.00;;;;;;;;;;5007945;28;20174;-57
2023/08/21 09:08:56;;;;;;;6.93;2.70;;;;;;;;;;5007144;28;20524;-59
2023/08/21 09:11:22;;;;;;;6.72;2.70;;;;;;;;;;5008461;28;20575;-57
2023/08/21 09:13:52;;;;;;;6.03;2.47;;;;;;;;;;5007112;28;20194;-57
2023/08/21 09:16:25;;;;;;;4.93;2.83;;;;;;;;;;5008491;28;20190;-57
2023/08/21 09:18:52;;;;;;;5.35;2.90;;;;;;;;;;4998704;28;20240;-58
2023/08/21 09:21:23;;;;;;;8.57;3.80;;;;;;;;;;4998960;28;20277;-58
2023/08/21 09:23:49;;;;;;;3.47;2.87;;;;;;;;;;5005358;28;20790;-57
2023/08/21 09:26:22;;;;;;;4.33;3.23;;;;;;;;;;5005886;28;20236;-58
2023/08/21 09:28:52;;;;;;;9.13;3.57;;;;;;;;;;5004140;28;20287;-58
2023/08/21 09:31:23;;;;;;;4.30;3.47;;;;;;;;;;5007396;28;20630;-58
2023/08/21 09:33:56;;;;;;;4.07;2.87;;;;;;;;;;5003004;28;20524;-58
2023/08/21 09:36:23;;;;;;;4.60;2.87;;;;;;;;;;5006964;28;20273;-58
2023/08/21 09:38:49;;;;;;;3.37;2.30;;;;;;;;;;4998236;28;20515;-57
2023/08/21 09:41:19;;;;;;;5.27;2.47;;;;;;;;;;4998466;28;20199;-58
2023/08/21 09:43:45;;;;;;;4.87;2.87;;;;;;;;;;4998818;28;20210;-57
2023/08/21 09:46:16;;;;;;;4.87;2.53;;;;;;;;;;5006280;28;20690;-58
2023/08/21 09:48:42;;;;;;;4.53;2.70;;;;;;;;;;5003629;28;20239;-55
2023/08/21 09:51:08;;;;;;;3.93;2.17;;;;;;;;;;5002558;28;20644;-55
2023/08/21 09:53:35;;;;;;;3.73;2.73;;;;;;;;;;5000150;28;20192;-55
2023/08/21 09:56:04;;;;;;;2.93;2.60;;;;;;;;;;5001640;28;20238;-55
2023/08/21 09:58:30;;;;;;;4.90;3.13;;;;;;;;;;5003802;28;20239;-55
2023/08/21 10:00:57;;;;;;;3.93;2.60;;;;;;;;;;5003661;28;20590;-55
2023/08/21 10:03:24;;;;;;;6.33;2.60;;;;;;;;;;5005329;28;20234;-56
2023/08/21 10:05:50;;;;;;;3.27;2.80;;;;;;;;;;5003441;28;20578;-55
2023/08/21 10:08:18;;;;;;;4.87;2.80;;;;;;;;;;5005929;28;20174;-55
2023/08/21 10:10:45;;;;;;;2.97;2.30;;;;;;;;;;5002075;28;20568;-55
2023/08/21 10:13:14;;;;;;;6.87;2.60;;;;;;;;;;4999814;28;20710;-54
2023/08/21 10:15:40;;;;;;;5.47;2.43;;;;;;;;;;5002344;28;20266;-56
2023/08/21 10:18:26;;;;;;;6.13;2.80;;;;;;;;;;5002387;28;20209;-56
2023/08/21 10:20:53;;;;;;;7.87;3.00;;;;;;;;;;5000927;28;20196;-56
2023/08/21 10:23:31;;;;;;;5.37;2.83;;;;;;;;;;4985578;28;20206;-56
2023/08/21 10:26:01;;;;;;;4.20;2.90;;;;;;;;;;5005089;28;20713;-56
2023/08/21 10:28:44;;;;;;;5.60;3.10;;;;;;;;;;5007859;28;20701;-56
2023/08/21 10:31:26;;;;;;;4.60;2.50;;;;;;;;;;5005051;28;20182;-56
2023/08/21 10:33:52;;;;;;;6.67;3.03;;;;;;;;;;5002686;28;20180;-55
2023/08/21 10:36:38;;;;;;;5.00;3.03;;;;;;;;;;5003056;28;20193;-56
2023/08/21 10:39:05;;;;;;;4.47;3.67;;;;;;;;;;5001700;28;20192;-55
2023/08/21 10:41:31;;;;;;;6.40;3.13;;;;;;;;;;5007481;28;20776;-56
2023/08/21 10:43:57;;;;;;;3.73;2.57;;;;;;;;;;5009307;28;20737;-56
2023/08/21 10:46:23;;;;;;;4.43;2.80;;;;;;;;;;5004631;28;20179;-56
2023/08/21 10:48:49;;;;;;;4.70;2.83;;;;;;;;;;5010563;28;20555;-56
2023/08/21 10:51:17;;;;;;;4.87;2.50;;;;;;;;;;5008296;28;20233;-57
2023/08/21 10:53:44;;;;;;;4.33;3.00;;;;;;;;;;5006997;28;20647;-56
2023/08/21 10:56:10;;;;;;;6.40;2.63;;;;;;;;;;5008157;28;20193;-56
2023/08/21 10:58:41;;;;;;;5.90;3.13;;;;;;;;;;5010016;28;20185;-56
2023/08/21 11:01:07;;;;;;;4.93;3.03;;;;;;;;;;5007058;28;20687;-56
2023/08/21 11:03:33;;;;;;;7.97;3.20;;;;;;;;;;5006906;28;20211;-56
2023/08/21 11:06:07;;;;;;;4.40;2.70;;;;;;;;;;5010692;28;20279;-55
2023/08/21 11:08:34;;;;;;;5.17;2.80;;;;;;;;;;5005353;28;20638;-56
2023/08/21 11:11:04;;;;;;;5.93;2.87;;;;;;;;;;5007530;28;20195;-56
2023/08/21 11:13:30;;;;;;;8.83;2.80;;;;;;;;;;5007822;28;20619;-56
2023/08/21 11:16:03;;;;;;;7.37;3.07;;;;;;;;;;5004496;28;20191;-56
2023/08/21 11:18:40;;;;;;;7.07;2.80;;;;;;;;;;5004358;28;20194;-57
2023/08/21 11:21:08;;;;;;;4.17;2.70;;;;;;;;;;5004717;28;20185;-58
2023/08/21 11:23:35;;;;;;;3.93;2.43;;;;;;;;;;5007738;28;20245;-59
2023/08/21 11:26:01;;;;;;;8.77;3.80;;;;;;;;;;5007252;28;20214;-58
2023/08/21 11:28:29;;;;;;;4.77;3.10;;;;;;;;;;5009349;28;20183;-59
2023/08/21 11:30:56;;;;;;;4.33;2.90;;;;;;;;;;5004976;28;20222;-59
2023/08/21 11:33:22;;;;;;;6.13;3.03;;;;;;;;;;5003972;28;20545;-58
2023/08/21 11:35:48;;;;;;;5.97;3.17;;;;;;;;;;5005758;28;20704;-59
2023/08/21 11:38:18;;;;;;;3.47;2.33;;;;;;;;;;5007986;28;20235;-58
2023/08/21 11:40:51;;;;;;;5.40;2.90;;;;;;;;;;5003622;28;20185;-59
2023/08/21 11:43:18;;;;;;;7.73;3.70;;;;;;;;;;5005829;28;20219;-59
2023/08/21 11:45:46;;;;;;;4.20;2.70;;;;;;;;;;5008707;28;20176;-60
2023/08/21 11:48:12;;;;;;;7.80;3.23;;;;;;;;;;5009780;28;20216;-59
2023/08/21 11:50:38;;;;;;;10.00;3.00;;;;;;;;;;5005714;28;20226;-60
2023/08/21 11:53:05;;;;;;;4.57;2.87;;;;;;;;;;5007362;28;20233;-60
2023/08/21 11:55:31;;;;;;;5.77;3.43;;;;;;;;;;4999331;28;20201;-61
2023/08/21 11:57:58;;;;;;;4.27;3.43;;;;;;;;;;5004704;28;20201;-60
2023/08/21 12:00:28;;;;;;;4.03;3.27;;;;;;;;;;5002421;28;20193;-61
2023/08/21 12:03:00;;;;;;;6.13;2.70;;;;;;;;;;5011756;28;20477;-62
2023/08/21 12:05:27;;;;;;;4.63;2.80;;;;;;;;;;5008576;28;20177;-61
2023/08/21 12:07:53;;;;;;;6.53;2.77;;;;;;;;;;5009526;28;20177;-58
2023/08/21 12:10:37;;;;;;;4.93;3.67;;;;;;;;;;5009183;28;20183;-60
2023/08/21 12:13:03;;;;;;;4.37;2.80;;;;;;;;;;5004498;28;20235;-61
2023/08/21 12:15:30;;;;;;;3.90;2.67;;;;;;;;;;5010222;28;20187;-61
2023/08/21 12:17:56;;;;;;;3.57;2.37;;;;;;;;;;5006758;28;20549;-60
2023/08/21 12:20:22;;;;;;;5.17;2.97;;;;;;;;;;5005955;28;20224;-54
2023/08/21 12:22:48;;;;;;;4.77;2.90;;;;;;;;;;5007943;28;20221;-55
2023/08/21 12:25:16;;;;;;;4.47;2.70;;;;;;;;;;5008961;28;20602;-54
2023/08/21 12:27:42;;;;;;;7.70;2.90;;;;;;;;;;5006320;28;20186;-56
2023/08/21 12:30:08;;;;;;;4.50;2.70;;;;;;;;;;4991556;28;20238;-61
2023/08/21 12:32:34;;;;;;;6.17;2.57;;;;;;;;;;5009433;28;20736;-60
2023/08/21 12:35:01;;;;;;;5.53;3.27;;;;;;;;;;5009540;28;20604;-61
2023/08/21 12:37:27;;;;;;;4.63;2.80;;;;;;;;;;5008651;28;20213;-60
2023/08/21 12:39:55;;;;;;;4.87;3.17;;;;;;;;;;5008816;28;20187;-61
2023/08/21 12:42:21;;;;;;;6.27;3.37;;;;;;;;;;5001615;28;20240;-61
2023/08/21 12:44:47;;;;;;;6.20;3.00;;;;;;;;;;5000209;28;20280;-61
2023/08/21 12:47:13;;;;;;;3.83;3.07;;;;;;;;;;5007339;28;20183;-60
2023/08/21 12:49:39;;;;;;;4.63;3.07;;;;;;;;;;5009133;28;20175;-62
2023/08/21 12:52:06;;;;;;;4.83;3.00;;;;;;;;;;5009568;28;20682;-60
2023/08/21 12:54:32;;;;;;;4.57;3.00;;;;;;;;;;5002925;28;21040;-63
2023/08/21 12:56:58;;;;;;;5.93;3.77;;;;;;;;;;4996318;28;20328;-60
2023/08/21 12:59:25;;;;;;;3.57;3.20;;;;;;;;;;5008241;28;20264;-61
2023/08/21 13:01:51;;;;;;;5.73;3.07;;;;;;;;;;5009196;28;21714;-61
2023/08/21 13:04:17;;;;;;;4.60;3.20;;;;;;;;;;5008301;28;20209;-61
2023/08/21 13:06:43;;;;;;;4.47;3.07;;;;;;;;;;5008834;28;20244;-60
2023/08/21 13:09:09;;;;;;;4.97;2.77;;;;;;;;;;5003509;28;20237;-60
2023/08/21 13:11:35;;;;;;;5.83;3.30;;;;;;;;;;4998323;28;20710;-59
2023/08/21 13:14:01;;;;;;;4.27;2.83;;;;;;;;;;5004347;28;20184;-60
2023/08/21 13:16:27;;;;;;;5.20;2.83;;;;;;;;;;5008658;28;20192;-61
2023/08/21 13:18:53;;;;;;;4.30;2.77;;;;;;;;;;5008539;28;20186;-61
2023/08/21 13:21:19;;;;;;;3.93;3.17;;;;;;;;;;5007952;28;20203;-61
2023/08/21 13:23:45;;;;;;;4.43;3.53;;;;;;;;;;5002282;28;20208;-61
2023/08/21 13:26:11;;;;;;;3.47;2.97;;;;;;;;;;5004824;28;20182;-61
2023/08/21 13:28:38;;;;;;;6.77;3.33;;;;;;;;;;5001581;28;20641;-62
2023/08/21 13:31:04;;;;;;;6.33;3.13;;;;;;;;;;5003868;28;20180;-64
2023/08/21 13:33:30;;;;;;;4.97;3.27;;;;;;;;;;5003691;28;20588;-62
2023/08/21 13:35:56;;;;;;;7.20;4.00;;;;;;;;;;5008411;28;20327;-62
2023/08/21 13:38:22;;;;;;;6.17;3.53;;;;;;;;;;5000229;28;20225;-61
2023/08/21 13:40:48;;;;;;;6.83;3.53;;;;;;;;;;5007116;28;20720;-56
2023/08/21 13:43:14;;;;;;;9.50;3.20;;;;;;;;;;5001327;28;20206;-57
2023/08/21 13:45:40;;;;;;;7.37;3.20;;;;;;;;;;5006312;28;20193;-56
2023/08/21 13:48:07;;;;;;;5.17;2.77;;;;;;;;;;5008435;28;20630;-56
2023/08/21 13:50:33;;;;;;;7.23;4.50;;;;;;;;;;5005886;28;20229;-56
2023/08/21 13:52:59;;;;;;;4.60;3.10;;;;;;;;;;4999614;28;20565;-56
2023/08/21 13:55:25;;;;;;;4.67;3.17;;;;;;;;;;5001680;28;20544;-57
2023/08/21 13:57:51;;;;;;;5.10;3.60;;;;;;;;;;5003933;28;20660;-56
2023/08/21 14:00:17;;;;;;;6.43;3.70;;;;;;;;;;4998729;28;20215;-56
2023/08/21 14:02:43;;;;;;;5.47;3.80;;;;;;;;;;5005174;28;20946;-57
2023/08/21 14:05:10;;;;;;;6.47;3.40;;;;;;;;;;5012842;28;20588;-56
2023/08/21 14:07:36;;;;;;;5.10;3.50;;;;;;;;;;5009389;28;20590;-56
2023/08/21 14:10:04;;;;;;;6.13;4.60;;;;;;;;;;5004623;28;20182;-57
2023/08/21 14:12:31;;;;;;;6.40;3.97;;;;;;;;;;5005908;28;20178;-56
2023/08/21 14:14:57;;;;;;;6.83;4.07;;;;;;;;;;5006528;28;20661;-56
2023/08/21 14:17:23;;;;;;;7.37;3.93;;;;;;;;;;5008995;28;20197;-56
2023/08/21 14:19:50;;;;;;;8.10;4.37;;;;;;;;;;5003192;28;20616;-56
2023/08/21 14:22:16;;;;;;;8.67;4.60;;;;;;;;;;5007627;28;20181;-56
2023/08/21 14:24:42;;;;;;;4.20;3.80;;;;;;;;;;5005780;28;20649;-56
2023/08/21 14:27:08;;;;;;;5.80;3.40;;;;;;;;;;5012039;28;20269;-56
2023/08/21 14:29:34;;;;;;;7.33;4.23;;;;;;;;;;5009222;28;20258;-56
2023/08/21 14:32:00;;;;;;;6.70;4.70;;;;;;;;;;5007659;28;20173;-56
2023/08/21 14:34:29;;;;;;;4.13;3.40;;;;;;;;;;5000953;28;20178;-56
2023/08/21 14:36:56;;;;;;;4.97;3.23;;;;;;;;;;5010262;28;20184;-56
2023/08/21 14:39:23;;;;;;;7.10;3.40;;;;;;;;;;5006349;28;20173;-56
2023/08/21 14:41:53;;;;;;;5.40;3.63;;;;;;;;;;5011291;28;20188;-57